sensor_id;sensor_type;location;lat;lon;timestamp;pressure;altitude;pressure_sealevel;temperature;humidity
44992;BME280;56865;51.618;7.406;2023-06-14T00:02:05;100724.03;;;34.63;34.92
44992;BME280;56865;51.618;7.406;2023-06-14T00:04:35;100720.19;;;34.67;35.80
44992;BME280;56865;51.618;7.406;2023-06-14T00:07:08;100729.13;;;34.78;36.86
44992;BME280;56865;51.618;7.406;2023-06-14T00:09:43;100726.22;;;34.70;35.70
44992;BME280;56865;51.618;7.406;2023-06-14T00:12:12;100726.38;;;34.55;33.32
44992;BME280;56865;51.618;7.406;2023-06-14T00:14:43;100734.56;;;34.52;33.30
44992;BME280;56865;51.618;7.406;2023-06-14T00:17:14;100732.59;;;34.67;35.59
44992;BME280;56865;51.618;7.406;2023-06-14T00:19:44;100732.22;;;34.47;36.60
44992;BME280;56865;51.618;7.406;2023-06-14T00:22:13;100732.97;;;34.49;34.46
44992;BME280;56865;51.618;7.406;2023-06-14T00:24:46;100740.28;;;34.46;34.85
44992;BME280;56865;51.618;7.406;2023-06-14T00:27:15;100746.53;;;34.45;34.61
44992;BME280;56865;51.618;7.406;2023-06-14T00:29:45;100747.72;;;34.41;34.53
44992;BME280;56865;51.618;7.406;2023-06-14T00:32:14;100745.16;;;33.89;32.65
44992;BME280;56865;51.618;7.406;2023-06-14T00:34:44;100739.94;;;34.13;33.39
44992;BME280;56865;51.618;7.406;2023-06-14T00:37:14;100746.41;;;34.46;33.42
44992;BME280;56865;51.618;7.406;2023-06-14T00:39:46;100740.97;;;34.24;33.87
44992;BME280;56865;51.618;7.406;2023-06-14T00:42:24;100749.53;;;34.27;32.32
44992;BME280;56865;51.618;7.406;2023-06-14T00:44:54;100753.78;;;34.17;31.91
44992;BME280;56865;51.618;7.406;2023-06-14T00:47:24;100748.56;;;34.41;34.88
44992;BME280;56865;51.618;7.406;2023-06-14T00:49:54;100742.63;;;34.38;35.18
44992;BME280;56865;51.618;7.406;2023-06-14T00:52:24;100746.25;;;34.24;33.62
44992;BME280;56865;51.618;7.406;2023-06-14T00:54:56;100755.16;;;34.36;33.35
44992;BME280;56865;51.618;7.406;2023-06-14T00:57:26;100750.41;;;34.15;33.96
44992;BME280;56865;51.618;7.406;2023-06-14T00:59:56;100750.47;;;34.26;36.01
44992;BME280;56865;51.618;7.406;2023-06-14T01:02:26;100754.63;;;34.17;35.36
44992;BME280;56865;51.618;7.406;2023-06-14T01:04:55;100756.38;;;33.93;34.86
44992;BME280;56865;51.618;7.406;2023-06-14T01:07:29;100754.97;;;34.00;35.06
44992;BME280;56865;51.618;7.406;2023-06-14T01:10:08;100763.88;;;33.86;33.21
44992;BME280;56865;51.618;7.406;2023-06-14T01:12:44;100767.91;;;33.92;35.11
44992;BME280;56865;51.618;7.406;2023-06-14T01:15:18;100767.38;;;33.74;34.86
44992;BME280;56865;51.618;7.406;2023-06-14T01:17:49;100762.22;;;33.85;35.40
44992;BME280;56865;51.618;7.406;2023-06-14T01:20:20;100763.56;;;33.78;33.66
44992;BME280;56865;51.618;7.406;2023-06-14T01:22:54;100764.28;;;33.54;32.89
44992;BME280;56865;51.618;7.406;2023-06-14T01:25:23;100769.69;;;33.91;35.10
44992;BME280;56865;51.618;7.406;2023-06-14T01:27:53;100768.84;;;33.91;34.93
44992;BME280;56865;51.618;7.406;2023-06-14T01:30:24;100764.63;;;33.75;34.43
44992;BME280;56865;51.618;7.406;2023-06-14T01:32:54;100764.81;;;33.72;33.90
44992;BME280;56865;51.618;7.406;2023-06-14T01:35:25;100769.28;;;33.84;35.19
44992;BME280;56865;51.618;7.406;2023-06-14T01:37:57;100764.28;;;33.67;34.52
44992;BME280;56865;51.618;7.406;2023-06-14T01:40:28;100768.00;;;33.64;33.53
44992;BME280;56865;51.618;7.406;2023-06-14T01:42:58;100771.50;;;33.78;35.42
44992;BME280;56865;51.618;7.406;2023-06-14T01:45:28;100765.75;;;33.58;35.09
44992;BME280;56865;51.618;7.406;2023-06-14T01:47:58;100766.09;;;33.53;33.63
44992;BME280;56865;51.618;7.406;2023-06-14T01:50:29;100775.16;;;33.62;33.49
44992;BME280;56865;51.618;7.406;2023-06-14T01:53:02;100781.72;;;33.57;33.33
44992;BME280;56865;51.618;7.406;2023-06-14T01:55:31;100772.53;;;33.49;32.47
44992;BME280;56865;51.618;7.406;2023-06-14T01:58:03;100773.16;;;33.13;33.13
44992;BME280;56865;51.618;7.406;2023-06-14T02:00:33;100768.09;;;33.50;34.51
44992;BME280;56865;51.618;7.406;2023-06-14T02:03:03;100763.13;;;33.58;35.60
44992;BME280;56865;51.618;7.406;2023-06-14T02:05:33;100767.88;;;33.40;32.58
44992;BME280;56865;51.618;7.406;2023-06-14T02:08:08;100763.09;;;33.71;35.44
44992;BME280;56865;51.618;7.406;2023-06-14T02:10:38;100773.38;;;33.50;32.83
44992;BME280;56865;51.618;7.406;2023-06-14T02:13:07;100763.22;;;33.57;36.53
44992;BME280;56865;51.618;7.406;2023-06-14T02:15:37;100768.41;;;33.32;33.83
44992;BME280;56865;51.618;7.406;2023-06-14T02:18:10;100768.16;;;33.35;34.33
44992;BME280;56865;51.618;7.406;2023-06-14T02:20:40;100766.53;;;33.20;35.23
44992;BME280;56865;51.618;7.406;2023-06-14T02:23:12;100771.47;;;33.12;32.54
44992;BME280;56865;51.618;7.406;2023-06-14T02:25:42;100774.53;;;33.46;34.26
44992;BME280;56865;51.618;7.406;2023-06-14T02:28:12;100775.47;;;33.32;34.09
44992;BME280;56865;51.618;7.406;2023-06-14T02:30:42;100773.16;;;33.53;35.00
44992;BME280;56865;51.618;7.406;2023-06-14T02:33:12;100778.47;;;33.26;33.83
44992;BME280;56865;51.618;7.406;2023-06-14T02:35:42;100778.16;;;33.45;36.74
44992;BME280;56865;51.618;7.406;2023-06-14T02:38:15;100782.38;;;33.20;35.45
44992;BME280;56865;51.618;7.406;2023-06-14T02:40:45;100778.81;;;33.21;36.70
44992;BME280;56865;51.618;7.406;2023-06-14T02:43:14;100787.72;;;33.05;36.12
44992;BME280;56865;51.618;7.406;2023-06-14T02:45:44;100776.56;;;33.15;36.04
44992;BME280;56865;51.618;7.406;2023-06-14T02:48:13;100774.66;;;33.17;36.12
44992;BME280;56865;51.618;7.406;2023-06-14T02:50:43;100778.44;;;33.13;37.40
44992;BME280;56865;51.618;7.406;2023-06-14T02:53:15;100776.94;;;32.96;35.57
44992;BME280;56865;51.618;7.406;2023-06-14T02:55:45;100783.16;;;32.95;33.62
44992;BME280;56865;51.618;7.406;2023-06-14T02:58:15;100778.38;;;32.87;34.40
44992;BME280;56865;51.618;7.406;2023-06-14T03:00:44;100789.53;;;33.05;34.98
44992;BME280;56865;51.618;7.406;2023-06-14T03:03:14;100784.09;;;32.94;34.92
44992;BME280;56865;51.618;7.406;2023-06-14T03:05:45;100789.41;;;33.06;35.27
44992;BME280;56865;51.618;7.406;2023-06-14T03:08:18;100791.91;;;32.95;34.91
44992;BME280;56865;51.618;7.406;2023-06-14T03:10:53;100795.03;;;33.02;36.06
44992;BME280;56865;51.618;7.406;2023-06-14T03:13:22;100805.63;;;32.87;36.25
44992;BME280;56865;51.618;7.406;2023-06-14T03:15:53;100804.28;;;32.95;35.68
44992;BME280;56865;51.618;7.406;2023-06-14T03:18:23;100811.78;;;32.73;34.37
44992;BME280;56865;51.618;7.406;2023-06-14T03:20:53;100811.72;;;33.02;35.93
44992;BME280;56865;51.618;7.406;2023-06-14T03:23:26;100817.75;;;33.04;34.84
44992;BME280;56865;51.618;7.406;2023-06-14T03:25:56;100829.41;;;33.15;33.62
44992;BME280;56865;51.618;7.406;2023-06-14T03:28:25;100821.06;;;33.21;35.29
44992;BME280;56865;51.618;7.406;2023-06-14T03:30:55;100826.22;;;33.10;35.63
44992;BME280;56865;51.618;7.406;2023-06-14T03:33:25;100831.38;;;32.84;34.33
44992;BME280;56865;51.618;7.406;2023-06-14T03:35:54;100825.53;;;32.93;34.21
44992;BME280;56865;51.618;7.406;2023-06-14T03:38:27;100831.19;;;33.14;35.20
44992;BME280;56865;51.618;7.406;2023-06-14T03:40:57;100826.00;;;32.85;35.25
44992;BME280;56865;51.618;7.406;2023-06-14T03:43:26;100829.28;;;32.89;34.80
44992;BME280;56865;51.618;7.406;2023-06-14T03:45:56;100832.78;;;32.89;35.88
44992;BME280;56865;51.618;7.406;2023-06-14T03:48:26;100842.88;;;32.97;35.17
44992;BME280;56865;51.618;7.406;2023-06-14T03:50:56;100836.41;;;32.74;34.59
44992;BME280;56865;51.618;7.406;2023-06-14T03:53:29;100847.44;;;32.81;35.20
44992;BME280;56865;51.618;7.406;2023-06-14T03:55:59;100847.00;;;33.01;36.51
44992;BME280;56865;51.618;7.406;2023-06-14T03:58:29;100848.94;;;32.85;35.65
44992;BME280;56865;51.618;7.406;2023-06-14T04:00:58;100852.72;;;32.81;34.16
44992;BME280;56865;51.618;7.406;2023-06-14T04:03:28;100858.06;;;32.79;34.75
44992;BME280;56865;51.618;7.406;2023-06-14T04:05:58;100855.53;;;32.78;35.54
44992;BME280;56865;51.618;7.406;2023-06-14T04:08:30;100859.56;;;32.69;34.54
44992;BME280;56865;51.618;7.406;2023-06-14T04:11:01;100861.38;;;32.83;35.78
44992;BME280;56865;51.618;7.406;2023-06-14T04:13:30;100868.56;;;32.81;35.08
44992;BME280;56865;51.618;7.406;2023-06-14T04:16:01;100872.53;;;32.45;34.34
44992;BME280;56865;51.618;7.406;2023-06-14T04:18:31;100868.63;;;32.79;34.89
44992;BME280;56865;51.618;7.406;2023-06-14T04:21:01;100878.16;;;32.67;34.42
44992;BME280;56865;51.618;7.406;2023-06-14T04:23:33;100883.84;;;32.76;34.97
44992;BME280;56865;51.618;7.406;2023-06-14T04:26:04;100887.31;;;32.76;35.43
44992;BME280;56865;51.618;7.406;2023-06-14T04:28:34;100896.75;;;32.80;34.17
44992;BME280;56865;51.618;7.406;2023-06-14T04:31:07;100880.69;;;32.69;34.96
44992;BME280;56865;51.618;7.406;2023-06-14T04:33:38;100880.63;;;32.56;35.10
44992;BME280;56865;51.618;7.406;2023-06-14T04:36:11;100884.78;;;32.75;34.25
44992;BME280;56865;51.618;7.406;2023-06-14T04:38:47;100892.31;;;32.81;34.87
44992;BME280;56865;51.618;7.406;2023-06-14T04:41:20;100888.34;;;32.45;34.40
44992;BME280;56865;51.618;7.406;2023-06-14T04:43:57;100903.50;;;32.99;34.66
44992;BME280;56865;51.618;7.406;2023-06-14T04:46:28;100901.53;;;32.88;34.52
44992;BME280;56865;51.618;7.406;2023-06-14T04:48:58;100903.50;;;32.99;34.46
44992;BME280;56865;51.618;7.406;2023-06-14T04:51:29;100905.78;;;32.90;34.96
44992;BME280;56865;51.618;7.406;2023-06-14T04:54:02;100908.53;;;32.89;34.38
44992;BME280;56865;51.618;7.406;2023-06-14T04:56:36;100905.91;;;32.46;33.90
44992;BME280;56865;51.618;7.406;2023-06-14T04:59:06;100905.88;;;33.03;34.96
44992;BME280;56865;51.618;7.406;2023-06-14T05:01:35;100906.34;;;33.23;35.62
44992;BME280;56865;51.618;7.406;2023-06-14T05:04:05;100912.19;;;33.43;34.69
44992;BME280;56865;51.618;7.406;2023-06-14T05:06:35;100920.44;;;33.51;34.44
44992;BME280;56865;51.618;7.406;2023-06-14T05:09:08;100905.50;;;32.37;34.79
44992;BME280;56865;51.618;7.406;2023-06-14T05:11:38;100907.97;;;32.55;34.60
44992;BME280;56865;51.618;7.406;2023-06-14T05:14:08;100910.59;;;32.98;35.66
44992;BME280;56865;51.618;7.406;2023-06-14T05:16:38;100914.78;;;33.30;34.17
44992;BME280;56865;51.618;7.406;2023-06-14T05:19:09;100919.00;;;33.60;36.13
44992;BME280;56865;51.618;7.406;2023-06-14T05:21:39;100922.78;;;33.56;34.81
44992;BME280;56865;51.618;7.406;2023-06-14T05:24:11;100917.47;;;33.43;34.03
44992;BME280;56865;51.618;7.406;2023-06-14T05:26:41;100920.25;;;33.54;34.47
44992;BME280;56865;51.618;7.406;2023-06-14T05:29:11;100924.06;;;33.50;34.54
44992;BME280;56865;51.618;7.406;2023-06-14T05:31:40;100921.09;;;33.82;34.97
44992;BME280;56865;51.618;7.406;2023-06-14T05:34:11;100920.44;;;33.51;33.52
44992;BME280;56865;51.618;7.406;2023-06-14T05:36:41;100919.50;;;33.92;34.81
44992;BME280;56865;51.618;7.406;2023-06-14T05:39:13;100919.34;;;34.08;34.21
44992;BME280;56865;51.618;7.406;2023-06-14T05:41:43;100928.25;;;33.80;33.72
44992;BME280;56865;51.618;7.406;2023-06-14T05:44:15;100932.66;;;33.94;33.42
44992;BME280;56865;51.618;7.406;2023-06-14T05:46:45;100930.69;;;34.62;34.04
44992;BME280;56865;51.618;7.406;2023-06-14T05:49:15;100936.97;;;34.85;33.64
44992;BME280;56865;51.618;7.406;2023-06-14T05:51:44;100934.06;;;35.14;33.33
44992;BME280;56865;51.618;7.406;2023-06-14T05:54:17;100927.97;;;35.38;34.25
44992;BME280;56865;51.618;7.406;2023-06-14T05:56:47;100931.03;;;35.31;34.43
44992;BME280;56865;51.618;7.406;2023-06-14T05:59:19;100935.94;;;34.75;33.12
44992;BME280;56865;51.618;7.406;2023-06-14T06:01:49;100942.47;;;35.32;34.30
44992;BME280;56865;51.618;7.406;2023-06-14T06:04:19;100935.09;;;35.24;34.14
44992;BME280;56865;51.618;7.406;2023-06-14T06:06:48;100933.19;;;35.26;33.94
44992;BME280;56865;51.618;7.406;2023-06-14T06:09:21;100943.84;;;35.62;34.98
44992;BME280;56865;51.618;7.406;2023-06-14T06:11:51;100938.81;;;35.94;34.69
44992;BME280;56865;51.618;7.406;2023-06-14T06:14:21;100949.59;;;36.27;32.94
44992;BME280;56865;51.618;7.406;2023-06-14T06:16:51;100956.31;;;36.78;33.44
44992;BME280;56865;51.618;7.406;2023-06-14T06:19:21;100960.75;;;36.43;31.67
44992;BME280;56865;51.618;7.406;2023-06-14T06:21:51;100956.31;;;35.97;32.13
44992;BME280;56865;51.618;7.406;2023-06-14T06:24:23;100950.69;;;35.53;31.71
44992;BME280;56865;51.618;7.406;2023-06-14T06:26:54;100948.13;;;36.00;33.68
44992;BME280;56865;51.618;7.406;2023-06-14T06:29:23;100945.38;;;36.13;32.66
44992;BME280;56865;51.618;7.406;2023-06-14T06:31:53;100951.63;;;36.12;31.41
44992;BME280;56865;51.618;7.406;2023-06-14T06:34:25;100959.06;;;36.65;32.40
44992;BME280;56865;51.618;7.406;2023-06-14T06:36:55;100961.63;;;36.89;32.23
44992;BME280;56865;51.618;7.406;2023-06-14T06:39:27;100967.97;;;37.21;32.64
44992;BME280;56865;51.618;7.406;2023-06-14T06:41:57;100964.53;;;36.86;31.76
44992;BME280;56865;51.618;7.406;2023-06-14T06:44:28;100976.66;;;37.23;33.58
44992;BME280;56865;51.618;7.406;2023-06-14T06:46:58;100974.66;;;36.81;31.95
44992;BME280;56865;51.618;7.406;2023-06-14T06:49:27;100978.63;;;37.21;32.61
44992;BME280;56865;51.618;7.406;2023-06-14T06:52:00;100976.13;;;36.85;31.34
44992;BME280;56865;51.618;7.406;2023-06-14T06:54:33;100985.16;;;36.94;30.80
44992;BME280;56865;51.618;7.406;2023-06-14T06:57:03;100982.88;;;37.01;32.93
44992;BME280;56865;51.618;7.406;2023-06-14T06:59:33;100992.13;;;37.18;31.34
44992;BME280;56865;51.618;7.406;2023-06-14T07:02:03;100990.06;;;37.77;32.43
44992;BME280;56865;51.618;7.406;2023-06-14T07:04:32;100991.91;;;37.65;30.12
44992;BME280;56865;51.618;7.406;2023-06-14T07:07:02;100982.63;;;36.92;30.81
44992;BME280;56865;51.618;7.406;2023-06-14T07:09:35;100999.16;;;36.51;30.79
44992;BME280;56865;51.618;7.406;2023-06-14T07:12:05;100996.38;;;36.52;31.44
44992;BME280;56865;51.618;7.406;2023-06-14T07:14:35;100994.84;;;36.14;31.72
44992;BME280;56865;51.618;7.406;2023-06-14T07:17:04;100992.16;;;36.61;33.68
44992;BME280;56865;51.618;7.406;2023-06-14T07:19:34;100995.66;;;36.84;33.60
44992;BME280;56865;51.618;7.406;2023-06-14T07:22:04;100993.84;;;36.62;34.03
44992;BME280;56865;51.618;7.406;2023-06-14T07:24:36;100987.88;;;36.36;31.93
44992;BME280;56865;51.618;7.406;2023-06-14T07:27:07;101001.69;;;36.52;32.08
44992;BME280;56865;51.618;7.406;2023-06-14T07:29:40;100990.25;;;36.63;32.35
44992;BME280;56865;51.618;7.406;2023-06-14T07:32:10;100991.31;;;36.38;31.91
44992;BME280;56865;51.618;7.406;2023-06-14T07:34:39;101003.38;;;36.42;32.27
44992;BME280;56865;51.618;7.406;2023-06-14T07:37:09;100989.72;;;36.00;31.35
44992;BME280;56865;51.618;7.406;2023-06-14T07:39:41;100986.19;;;36.35;32.53
44992;BME280;56865;51.618;7.406;2023-06-14T07:42:11;101006.34;;;35.90;32.27
44992;BME280;56865;51.618;7.406;2023-06-14T07:44:42;101004.16;;;36.31;32.44
44992;BME280;56865;51.618;7.406;2023-06-14T07:47:11;100991.78;;;36.43;32.47
44992;BME280;56865;51.618;7.406;2023-06-14T07:49:41;100994.31;;;36.56;32.79
44992;BME280;56865;51.618;7.406;2023-06-14T07:52:11;100996.63;;;36.72;32.33
44992;BME280;56865;51.618;7.406;2023-06-14T07:54:43;101014.69;;;35.97;30.53
44992;BME280;56865;51.618;7.406;2023-06-14T07:57:13;100999.97;;;35.93;30.17
44992;BME280;56865;51.618;7.406;2023-06-14T07:59:42;101003.59;;;36.39;31.71
44992;BME280;56865;51.618;7.406;2023-06-14T08:02:12;101011.25;;;36.19;30.12
44992;BME280;56865;51.618;7.406;2023-06-14T08:04:42;101001.06;;;35.53;29.97
44992;BME280;56865;51.618;7.406;2023-06-14T08:07:12;100994.66;;;35.93;30.12
44992;BME280;56865;51.618;7.406;2023-06-14T08:09:44;101001.69;;;36.52;31.73
44992;BME280;56865;51.618;7.406;2023-06-14T08:12:22;101006.53;;;36.11;30.19
44992;BME280;56865;51.618;7.406;2023-06-14T08:14:51;101003.16;;;36.09;30.41
44992;BME280;56865;51.618;7.406;2023-06-14T08:17:38;100992.69;;;36.31;30.18
44992;BME280;56865;51.618;7.406;2023-06-14T08:20:09;100989.38;;;36.74;32.42
44992;BME280;56865;51.618;7.406;2023-06-14T08:22:40;100994.44;;;36.43;31.17
44992;BME280;56865;51.618;7.406;2023-06-14T08:25:12;100993.47;;;36.67;30.49
44992;BME280;56865;51.618;7.406;2023-06-14T08:27:42;100988.28;;;36.76;31.88
44992;BME280;56865;51.618;7.406;2023-06-14T08:30:13;100984.47;;;36.92;31.06
44992;BME280;56865;51.618;7.406;2023-06-14T08:32:44;100996.13;;;36.44;29.77
44992;BME280;56865;51.618;7.406;2023-06-14T08:35:17;100996.50;;;36.73;31.45
44992;BME280;56865;51.618;7.406;2023-06-14T08:37:47;100998.53;;;36.47;30.30
44992;BME280;56865;51.618;7.406;2023-06-14T08:40:23;100994.22;;;37.03;31.48
44992;BME280;56865;51.618;7.406;2023-06-14T08:42:53;100998.50;;;36.36;28.89
44992;BME280;56865;51.618;7.406;2023-06-14T08:45:23;101002.53;;;36.53;29.91
44992;BME280;56865;51.618;7.406;2023-06-14T08:47:55;101004.41;;;35.92;28.83
44992;BME280;56865;51.618;7.406;2023-06-14T08:50:27;101007.25;;;36.49;31.21
44992;BME280;56865;51.618;7.406;2023-06-14T08:52:59;101000.66;;;36.19;28.44
44992;BME280;56865;51.618;7.406;2023-06-14T08:55:33;101010.84;;;35.77;28.12
44992;BME280;56865;51.618;7.406;2023-06-14T08:58:08;100999.16;;;36.73;31.25
44992;BME280;56865;51.618;7.406;2023-06-14T09:00:41;101008.22;;;36.71;30.16
44992;BME280;56865;51.618;7.406;2023-06-14T09:03:12;101006.03;;;36.42;28.98
44992;BME280;56865;51.618;7.406;2023-06-14T09:05:42;100994.69;;;36.74;29.17
44992;BME280;56865;51.618;7.406;2023-06-14T09:08:13;100995.44;;;36.87;29.33
44992;BME280;56865;51.618;7.406;2023-06-14T09:10:45;100997.84;;;36.90;29.84
44992;BME280;56865;51.618;7.406;2023-06-14T09:13:15;101004.09;;;36.67;29.93
44992;BME280;56865;51.618;7.406;2023-06-14T09:15:45;101013.88;;;36.66;30.21
44992;BME280;56865;51.618;7.406;2023-06-14T09:18:16;101005.53;;;36.37;28.45
44992;BME280;56865;51.618;7.406;2023-06-14T09:20:46;101012.44;;;36.62;28.81
44992;BME280;56865;51.618;7.406;2023-06-14T09:23:20;101011.50;;;37.08;30.84
44992;BME280;56865;51.618;7.406;2023-06-14T09:25:53;101015.94;;;36.63;29.94
44992;BME280;56865;51.618;7.406;2023-06-14T09:28:26;101014.50;;;37.15;31.42
44992;BME280;56865;51.618;7.406;2023-06-14T09:30:56;101012.97;;;36.20;30.37
44992;BME280;56865;51.618;7.406;2023-06-14T09:33:25;101015.81;;;36.64;31.88
44992;BME280;56865;51.618;7.406;2023-06-14T09:35:55;101015.81;;;36.75;30.60
44992;BME280;56865;51.618;7.406;2023-06-14T09:38:25;101018.88;;;36.94;31.12
44992;BME280;56865;51.618;7.406;2023-06-14T09:40:58;101021.97;;;36.53;29.90
44992;BME280;56865;51.618;7.406;2023-06-14T09:43:28;101021.28;;;37.08;31.27
44992;BME280;56865;51.618;7.406;2023-06-14T09:46:00;101029.25;;;37.08;30.34
44992;BME280;56865;51.618;7.406;2023-06-14T09:48:30;101035.28;;;36.65;29.34
44992;BME280;56865;51.618;7.406;2023-06-14T09:50:59;101026.50;;;36.98;31.13
44992;BME280;56865;51.618;7.406;2023-06-14T09:53:33;101029.25;;;36.27;30.01
44992;BME280;56865;51.618;7.406;2023-06-14T09:56:06;101015.72;;;36.66;32.50
44992;BME280;56865;51.618;7.406;2023-06-14T09:58:36;101029.00;;;36.66;30.54
44992;BME280;56865;51.618;7.406;2023-06-14T10:01:11;101024.72;;;36.05;29.36
44992;BME280;56865;51.618;7.406;2023-06-14T10:03:42;101020.19;;;36.99;31.52
44992;BME280;56865;51.618;7.406;2023-06-14T10:06:32;101026.09;;;36.80;30.13
44992;BME280;56865;51.618;7.406;2023-06-14T10:09:07;101031.28;;;36.23;29.37
44992;BME280;56865;51.618;7.406;2023-06-14T10:11:40;101019.38;;;36.29;29.29
44992;BME280;56865;51.618;7.406;2023-06-14T10:14:11;101018.38;;;36.66;30.32
44992;BME280;56865;51.618;7.406;2023-06-14T10:16:44;101030.41;;;36.47;29.66
44992;BME280;56865;51.618;7.406;2023-06-14T10:19:17;101020.00;;;36.44;29.80
44992;BME280;56865;51.618;7.406;2023-06-14T10:21:51;101023.72;;;37.00;32.64
44992;BME280;56865;51.618;7.406;2023-06-14T10:24:26;101020.16;;;36.54;30.37
44992;BME280;56865;51.618;7.406;2023-06-14T10:27:01;101028.91;;;36.32;29.32
44992;BME280;56865;51.618;7.406;2023-06-14T10:29:31;101024.53;;;36.66;29.55
44992;BME280;56865;51.618;7.406;2023-06-14T10:32:01;101021.06;;;36.88;30.55
44992;BME280;56865;51.618;7.406;2023-06-14T10:34:31;101025.13;;;36.70;30.04
44992;BME280;56865;51.618;7.406;2023-06-14T10:37:02;101026.81;;;36.82;30.30
44992;BME280;56865;51.618;7.406;2023-06-14T10:39:32;101027.78;;;36.58;29.98
44992;BME280;56865;51.618;7.406;2023-06-14T10:42:05;101025.59;;;36.64;30.03
44992;BME280;56865;51.618;7.406;2023-06-14T10:44:41;101026.13;;;36.91;32.02
44992;BME280;56865;51.618;7.406;2023-06-14T10:47:20;101030.44;;;36.81;31.30
44992;BME280;56865;51.618;7.406;2023-06-14T10:49:52;101023.94;;;36.85;30.58
44992;BME280;56865;51.618;7.406;2023-06-14T10:52:25;101017.88;;;37.29;29.82
44992;BME280;56865;51.618;7.406;2023-06-14T10:57:49;101024.16;;;36.82;29.68
44992;BME280;56865;51.618;7.406;2023-06-14T11:00:23;101018.41;;;36.88;31.51
44992;BME280;56865;51.618;7.406;2023-06-14T11:05:51;101021.13;;;37.32;32.59
44992;BME280;56865;51.618;7.406;2023-06-14T11:11:07;101019.22;;;37.12;31.34
44992;BME280;56865;51.618;7.406;2023-06-14T11:13:41;101016.19;;;36.82;30.83
44992;BME280;56865;51.618;7.406;2023-06-14T11:16:11;101007.28;;;36.95;30.78
44992;BME280;56865;51.618;7.406;2023-06-14T11:18:41;101009.03;;;36.49;29.45
44992;BME280;56865;51.618;7.406;2023-06-14T11:21:14;101007.50;;;37.03;30.02
44992;BME280;56865;51.618;7.406;2023-06-14T11:23:48;100997.34;;;36.74;30.29
44992;BME280;56865;51.618;7.406;2023-06-14T11:26:25;101017.63;;;36.75;30.07
44992;BME280;56865;51.618;7.406;2023-06-14T11:28:59;101007.00;;;37.20;30.45
44992;BME280;56865;51.618;7.406;2023-06-14T11:31:29;101003.00;;;37.26;29.74
44992;BME280;56865;51.618;7.406;2023-06-14T11:33:59;101007.75;;;37.11;29.40
44992;BME280;56865;51.618;7.406;2023-06-14T11:36:31;101020.78;;;37.03;29.27
44992;BME280;56865;51.618;7.406;2023-06-14T11:39:03;101019.56;;;37.18;30.10
44992;BME280;56865;51.618;7.406;2023-06-14T11:41:35;101005.69;;;37.81;30.40
44992;BME280;56865;51.618;7.406;2023-06-14T11:44:08;101016.66;;;37.33;28.88
44992;BME280;56865;51.618;7.406;2023-06-14T11:46:38;101006.53;;;37.15;28.88
44992;BME280;56865;51.618;7.406;2023-06-14T11:49:08;101027.09;;;36.90;29.25
44992;BME280;56865;51.618;7.406;2023-06-14T11:51:37;101002.28;;;37.35;30.70
44992;BME280;56865;51.618;7.406;2023-06-14T11:54:07;101007.94;;;37.42;30.32
44992;BME280;56865;51.618;7.406;2023-06-14T11:56:37;101006.16;;;37.20;29.79
44992;BME280;56865;51.618;7.406;2023-06-14T11:59:10;101007.25;;;37.17;30.22
44992;BME280;56865;51.618;7.406;2023-06-14T12:01:42;101011.00;;;36.81;29.15
44992;BME280;56865;51.618;7.406;2023-06-14T12:04:12;101001.91;;;37.40;28.69
44992;BME280;56865;51.618;7.406;2023-06-14T12:06:42;101006.66;;;37.14;29.02
44992;BME280;56865;51.618;7.406;2023-06-14T12:09:16;101008.94;;;37.30;29.49
44992;BME280;56865;51.618;7.406;2023-06-14T12:11:46;101019.66;;;37.51;30.10
44992;BME280;56865;51.618;7.406;2023-06-14T12:14:18;101013.91;;;36.89;29.19
44992;BME280;56865;51.618;7.406;2023-06-14T12:16:49;101005.28;;;37.31;29.00
44992;BME280;56865;51.618;7.406;2023-06-14T12:19:19;101011.09;;;37.36;28.89
44992;BME280;56865;51.618;7.406;2023-06-14T12:21:49;101011.69;;;37.39;28.62
44992;BME280;56865;51.618;7.406;2023-06-14T12:24:18;101010.06;;;37.60;29.73
44992;BME280;56865;51.618;7.406;2023-06-14T12:26:49;101012.22;;;37.66;29.27
44992;BME280;56865;51.618;7.406;2023-06-14T12:29:23;101009.59;;;37.54;28.83
44992;BME280;56865;51.618;7.406;2023-06-14T12:31:52;101009.69;;;37.64;30.81
44992;BME280;56865;51.618;7.406;2023-06-14T12:34:23;101008.81;;;37.86;30.31
44992;BME280;56865;51.618;7.406;2023-06-14T12:36:53;100998.88;;;37.45;30.18
44992;BME280;56865;51.618;7.406;2023-06-14T12:39:23;101008.59;;;37.12;29.15
44992;BME280;56865;51.618;7.406;2023-06-14T12:41:54;100996.19;;;37.45;28.73
44992;BME280;56865;51.618;7.406;2023-06-14T12:44:26;101000.91;;;37.52;28.93
44992;BME280;56865;51.618;7.406;2023-06-14T12:46:56;101005.66;;;38.02;29.94
44992;BME280;56865;51.618;7.406;2023-06-14T12:49:26;101008.81;;;38.29;31.15
44992;BME280;56865;51.618;7.406;2023-06-14T12:51:55;101002.50;;;38.09;29.36
44992;BME280;56865;51.618;7.406;2023-06-14T12:54:25;101007.69;;;37.89;28.97
44992;BME280;56865;51.618;7.406;2023-06-14T12:57:05;101007.94;;;37.86;29.52
44992;BME280;56865;51.618;7.406;2023-06-14T12:59:39;101009.31;;;38.44;30.05
44992;BME280;56865;51.618;7.406;2023-06-14T13:02:12;101012.84;;;38.23;28.83
44992;BME280;56865;51.618;7.406;2023-06-14T13:04:42;101019.06;;;38.55;28.79
44992;BME280;56865;51.618;7.406;2023-06-14T13:07:14;101023.34;;;38.25;28.50
44992;BME280;56865;51.618;7.406;2023-06-14T13:09:44;101004.16;;;37.56;28.15
44992;BME280;56865;51.618;7.406;2023-06-14T13:12:13;101001.97;;;38.15;27.89
44992;BME280;56865;51.618;7.406;2023-06-14T13:14:46;101018.97;;;38.97;27.54
44992;BME280;56865;51.618;7.406;2023-06-14T13:17:15;101019.53;;;39.41;27.33
44992;BME280;56865;51.618;7.406;2023-06-14T13:19:45;101013.78;;;39.36;27.28